Terminal Aerodrome Forecast
Issued by NWS

Home | Current Version | Previous Version | Text Only | Print | Product List | Glossary On
Versions: 1 2 3 4 5 6 7 8 9 10 11 12 13 14 15 16 17 18 19 20 21 22 23 24 25 26
000
FTPA31 PHFO 261700
TAFKOA
TAF
PHKO 261731Z 2618/2718 10005KT P6SM FEW030 SCT045
     FM262000 22009KT P6SM BKN060
     FM270500 VRB06KT P6SM FEW030 BKN050=

USA.gov is the U.S. government's official web portal to all federal, state and local government web resources and services.